Terminal Aerodrome Forecast
Issued by NWS Twin Cities, MN

Home | Current Version | Previous Version | Graphics & Text | Print | Product List | Glossary On
Versions: 1 2 3 4 5 6 7 8 9 10 11 12 13 14 15 16 17 18 19
000
FTUS43 KMPX 261400 AAA
TAFSTC
TAF AMD
KSTC 261400Z 2614/2712 01009KT 5SM -SN BR SCT025 BKN040
     FM261800 35010KT P6SM -SN OVC025
     FM262100 33010KT P6SM SCT018 BKN040
     FM270000 33008KT P6SM SCT050=

USA.gov is the U.S. government's official web portal to all federal, state and local government web resources and services.